M I D A S
Marine Information and Data Acquisition System
Tripno 1878 of the Zeeleeuw from 2010-05-10 04:57:45 to 2010-05-10 15:58:41
Back to CruiseResearch ActivitiesStationsMapUnderway DataData graphs

EquipmentUnitsComment
TimeDGPSUTC
LatitudeDGPSDM.mWGS84
LongitudeDGPSDM.mWGS84
HeadingGyrodeg 
SOGDGPSknotsSpeed over ground
COGDGPSdegCourse over ground
DepthEcho soundermeters200 kHz
Missing or incorrect values are displayed as -999
Navigation data collected by the RV Zeeleeuw from 2010-05-10 05:18:22 to 2010-05-10 17:48:57
                                                                                    Next 1000 lines
Time Latitude Longitude Heading SOG COG Depth
2010-05-10 05:18:32 51°13.66 2°55.955 110.9 1.1 285 5.5
2010-05-10 05:18:37 51°13.661 2°55.952 111 1.5 288 5.6
2010-05-10 05:18:42 51°13.662 2°55.948 111.1 2 292 5.7
2010-05-10 05:18:47 51°13.664 2°55.943 111.1 2.4 292 -999
2010-05-10 05:18:53 51°13.666 2°55.937 111.2 2.7 293 -999
2010-05-10 05:18:58 51°13.667 2°55.931 111.2 3 294 -999
2010-05-10 05:19:04 51°13.669 2°55.923 111.2 3.3 292 -999
2010-05-10 05:19:10 51°13.671 2°55.914 111.1 3.6 293 -999
2010-05-10 05:19:15 51°13.673 2°55.907 110.4 3.8 290 -999
2010-05-10 05:19:21 51°13.675 2°55.897 109.5 4 290 -999
2010-05-10 05:19:25 51°13.677 2°55.89 108.2 4.2 288 -999
2010-05-10 05:19:31 51°13.679 2°55.879 107.4 4.3 288 -999
2010-05-10 05:19:36 51°13.681 2°55.869 106.6 4.5 287 -999
2010-05-10 05:19:41 51°13.683 2°55.859 106 4.5 286 -999
2010-05-10 05:19:45 51°13.684 2°55.851 105.1 4.5 285 -999
2010-05-10 05:19:51 51°13.686 2°55.84 104.1 4.4 284 -999
2010-05-10 05:19:56 51°13.687 2°55.831 103.2 4.3 283 -999
2010-05-10 05:20:01 51°13.688 2°55.822 102.4 4.3 281 -999
2010-05-10 05:20:05 51°13.689 2°55.814 101.3 4.2 281 -999
2010-05-10 05:20:11 51°13.69 2°55.804 100.5 4 280 -999
2010-05-10 05:20:16 51°13.691 2°55.796 99.2 3.8 280 -999
2010-05-10 05:20:21 51°13.692 2°55.788 98.3 3.7 280 -999
2010-05-10 05:20:25 51°13.693 2°55.781 97.4 3.5 280 -999
2010-05-10 05:20:31 51°13.694 2°55.773 96.8 2.9 279 -999
2010-05-10 05:20:35 51°13.694 2°55.77 95.9 2.1 278 11
2010-05-10 05:20:40 51°13.694 2°55.766 94.3 1.4 278 11
2010-05-10 05:20:45 51°13.694 2°55.764 92.3 0.9 288 11.4
2010-05-10 05:20:49 51°13.695 2°55.764 87.6 0.3 312 11.1
2010-05-10 05:20:54 51°13.695 2°55.764 84.3 0.4 17 11.1
2010-05-10 05:20:59 51°13.696 2°55.765 79.1 0.5 44 11.1
2010-05-10 05:21:04 51°13.696 2°55.766 72.8 0.6 40 11.1
2010-05-10 05:21:09 51°13.697 2°55.767 67.8 0.6 43 11.1
2010-05-10 05:21:13 51°13.697 2°55.767 64.4 0.6 36 11.3
2010-05-10 05:21:18 51°13.698 2°55.768 60.9 0.3 23 -999
2010-05-10 05:21:24 51°13.698 2°55.767 57.9 0.2 278 -999
2010-05-10 05:21:29 51°13.698 2°55.766 55.3 0.6 253 -999
2010-05-10 05:21:33 51°13.697 2°55.765 53.1 0.8 241 11.2
2010-05-10 05:21:38 51°13.696 2°55.763 51.6 1 243 11.2
2010-05-10 05:21:43 51°13.696 2°55.761 50 1.1 236 11.4
2010-05-10 05:21:48 51°13.695 2°55.758 48.6 1.1 241 11.2
2010-05-10 05:21:53 51°13.694 2°55.757 47.7 1 233 11.2
2010-05-10 05:21:57 51°13.694 2°55.755 46.5 1 244 11.4
2010-05-10 05:22:03 51°13.693 2°55.753 45.5 0.7 237 -999
2010-05-10 05:22:09 51°13.693 2°55.752 43 0.5 252 -999
2010-05-10 05:22:14 51°13.693 2°55.752 40.3 0.3 255 -999
2010-05-10 05:22:19 51°13.693 2°55.751 37.6 0.3 275 4.9
2010-05-10 05:22:24 51°13.693 2°55.751 35.3 0.2 296 11.3
2010-05-10 05:22:29 51°13.693 2°55.75 32.5 0.3 317 11.3
2010-05-10 05:22:33 51°13.693 2°55.75 30.2 0.3 341 4.6
2010-05-10 05:22:38 51°13.694 2°55.75 26.8 0.4 339 11.5
2010-05-10 05:22:43 51°13.694 2°55.75 23.7 0.4 351 11.3
2010-05-10 05:22:48 51°13.695 2°55.749 20.6 0.8 355 11.3
2010-05-10 05:22:53 51°13.697 2°55.749 17.1 1 1 11.3
2010-05-10 05:22:58 51°13.698 2°55.749 12.4 1.2 350 11.4
2010-05-10 05:23:03 51°13.7 2°55.749 7.1 1.5 354 11.3
2010-05-10 05:23:08 51°13.703 2°55.748 2.8 1.7 347 11.6
2010-05-10 05:23:13 51°13.705 2°55.747 356.7 2 345 11.6
2010-05-10 05:23:17 51°13.708 2°55.745 350.8 2.2 342 4.9
2010-05-10 05:23:22 51°13.711 2°55.743 346 2.5 339 11.5
2010-05-10 05:23:27 51°13.715 2°55.741 341.9 2.9 335 11.5
2010-05-10 05:23:32 51°13.719 2°55.738 338.3 3.4 333 11.2
2010-05-10 05:23:37 51°13.724 2°55.734 334.9 3.7 331 11.2
2010-05-10 05:23:41 51°13.727 2°55.73 332.3 4.2 330 11.1
2010-05-10 05:23:47 51°13.734 2°55.724 330.8 4.8 328 10.9
2010-05-10 05:23:52 51°13.74 2°55.718 330 5.5 328 10.8
2010-05-10 05:23:57 51°13.747 2°55.71 329.7 5.9 327 10.7
2010-05-10 05:24:02 51°13.755 2°55.702 329.4 6.5 328 10.5
2010-05-10 05:24:06 51°13.761 2°55.696 329.3 7 327 10.4
2010-05-10 05:24:12 51°13.771 2°55.685 328.9 7.4 327 10.4
2010-05-10 05:24:17 51°13.78 2°55.676 328.7 7.7 328 10.4
2010-05-10 05:24:22 51°13.79 2°55.667 329.4 8 329 10.4
2010-05-10 05:24:27 51°13.8 2°55.658 330.6 8.3 331 10.4
2010-05-10 05:24:32 51°13.81 2°55.649 332.6 8.6 333 10.3
2010-05-10 05:24:37 51°13.821 2°55.64 333.4 8.7 332 10.2
2010-05-10 05:24:42 51°13.832 2°55.632 334.6 9.1 335 10.2
2010-05-10 05:24:47 51°13.844 2°55.623 336.7 9.3 336 10.2
2010-05-10 05:24:52 51°13.856 2°55.614 338 9.5 335 10.3
2010-05-10 05:24:57 51°13.868 2°55.605 337.6 9.7 335 10.2
2010-05-10 05:25:01 51°13.878 2°55.598 337.6 9.8 335 10.2
2010-05-10 05:25:07 51°13.893 2°55.588 339 9.9 337 10.2
2010-05-10 05:25:12 51°13.906 2°55.579 339.4 10 335 10.3
2010-05-10 05:25:17 51°13.919 2°55.57 339 10.1 336 10.3
2010-05-10 05:25:22 51°13.931 2°55.56 338.5 10.2 336 10.2
2010-05-10 05:25:27 51°13.945 2°55.55 338 10.4 336 10.2
2010-05-10 05:25:32 51°13.958 2°55.541 337.9 10.5 336 10.2
2010-05-10 05:25:37 51°13.971 2°55.532 338.2 10.5 337 10.2
2010-05-10 05:25:41 51°13.982 2°55.524 338.5 10.6 337 10.2
2010-05-10 05:25:47 51°13.998 2°55.513 338.3 10.6 336 10.2
2010-05-10 05:25:52 51°14.012 2°55.503 338.1 10.7 336 10.2
2010-05-10 05:25:57 51°14.025 2°55.494 338.2 10.7 337 10.1
2010-05-10 05:26:02 51°14.039 2°55.485 338.7 10.7 337 10.1
2010-05-10 05:26:06 51°14.05 2°55.477 338.8 10.7 336 10.1
2010-05-10 05:26:12 51°14.066 2°55.466 338.7 10.7 337 10.1
2010-05-10 05:26:17 51°14.08 2°55.457 338.9 10.8 336 10.2
2010-05-10 05:26:22 51°14.094 2°55.447 338.5 10.8 336 10.1
2010-05-10 05:26:27 51°14.107 2°55.436 337.6 10.9 335 10.1
2010-05-10 05:26:32 51°14.121 2°55.426 337.4 10.9 335 10.1
2010-05-10 05:26:37 51°14.135 2°55.416 337.4 10.9 335 10.1
2010-05-10 05:26:41 51°14.146 2°55.408 336.9 11 334 10.1
2010-05-10 05:26:47 51°14.162 2°55.395 336 10.9 333 10
2010-05-10 05:26:52 51°14.176 2°55.384 335.3 10.9 331 9.9
2010-05-10 05:26:57 51°14.188 2°55.371 332.7 10.9 328 10
2010-05-10 05:27:02 51°14.201 2°55.358 330.7 10.9 327 10.1
2010-05-10 05:27:07 51°14.214 2°55.345 329.5 10.9 327 10
2010-05-10 05:27:12 51°14.226 2°55.331 328.2 10.9 325 9.9
2010-05-10 05:27:17 51°14.239 2°55.317 327.3 10.9 326 9.9
2010-05-10 05:27:21 51°14.249 2°55.306 327.4 10.9 326 10
2010-05-10 05:27:27 51°14.264 2°55.291 328.3 10.9 327 10
2010-05-10 05:27:32 51°14.277 2°55.277 328.6 11 326 9.9
2010-05-10 05:27:37 51°14.29 2°55.263 328.1 11.2 325 9.9
2010-05-10 05:27:42 51°14.302 2°55.249 327.5 11.3 325 9.9
2010-05-10 05:27:47 51°14.315 2°55.234 327.2 11.5 325 10
2010-05-10 05:27:52 51°14.328 2°55.219 326.7 11.6 324 9.7
2010-05-10 05:27:57 51°14.341 2°55.203 325.9 11.7 324 9.6
2010-05-10 05:28:02 51°14.355 2°55.188 325.8 11.9 324 10
2010-05-10 05:28:07 51°14.368 2°55.171 325.3 12.1 323 9.9
2010-05-10 05:28:12 51°14.382 2°55.155 325.6 12.2 324 9.9
2010-05-10 05:28:17 51°14.396 2°55.139 326.4 12.3 324 9.8
2010-05-10 05:28:22 51°14.41 2°55.123 326.6 12.5 324 9.8
2010-05-10 05:28:27 51°14.424 2°55.106 326.1 12.7 323 9.9
2010-05-10 05:28:32 51°14.438 2°55.089 325.6 12.9 323 9.8
2010-05-10 05:28:37 51°14.452 2°55.072 325.5 13 322 9.9
2010-05-10 05:28:41 51°14.464 2°55.057 324.5 13 322 10.2
2010-05-10 05:28:47 51°14.481 2°55.035 324.2 13.2 321 10.2
2010-05-10 05:28:52 51°14.494 2°55.016 323.8 13.2 319 10.2
2010-05-10 05:28:57 51°14.508 2°54.997 322.8 13.2 318 10.2
2010-05-10 05:29:02 51°14.522 2°54.977 322.3 13.3 318 10.5
2010-05-10 05:29:07 51°14.535 2°54.957 322.2 13.4 317 10.4
2010-05-10 05:29:12 51°14.549 2°54.937 322.5 13.5 317 10.3
2010-05-10 05:29:17 51°14.563 2°54.917 323.2 13.5 318 10.5
2010-05-10 05:29:21 51°14.575 2°54.901 324.7 13.4 321 10.6
2010-05-10 05:29:27 51°14.592 2°54.879 326.6 13.3 321 10.3
2010-05-10 05:29:32 51°14.606 2°54.861 327.2 13.3 321 10.4
2010-05-10 05:29:37 51°14.621 2°54.842 327.6 13.3 321 10.6
2010-05-10 05:29:42 51°14.635 2°54.824 327.8 13.3 322 10.5
2010-05-10 05:29:47 51°14.65 2°54.806 328 13.3 321 10.5
2010-05-10 05:29:52 51°14.664 2°54.788 328 13.3 321 10.5
2010-05-10 05:29:57 51°14.679 2°54.77 327.9 13.3 321 10.5
2010-05-10 05:30:01 51°14.691 2°54.755 327.8 13.2 322 9.3
2010-05-10 05:30:07 51°14.708 2°54.734 328.3 13.2 322 9.4
2010-05-10 05:30:12 51°14.721 2°54.715 328.5 13 322 9.2
2010-05-10 05:30:17 51°14.736 2°54.698 328.7 12.9 323 9.2
2010-05-10 05:30:22 51°14.75 2°54.68 328.9 13 323 9.3
2010-05-10 05:30:26 51°14.762 2°54.666 329.1 13.1 322 9.1
2010-05-10 05:30:32 51°14.778 2°54.644 328.5 13.1 322 9.1
2010-05-10 05:30:37 51°14.793 2°54.627 328.5 13.1 323 9.1
2010-05-10 05:30:42 51°14.808 2°54.609 328.6 13.2 323 9
2010-05-10 05:30:47 51°14.823 2°54.592 328.6 13.2 322 10.3
2010-05-10 05:30:52 51°14.837 2°54.574 328.2 13.3 323 10.4
2010-05-10 05:30:57 51°14.852 2°54.556 328.6 13.5 322 10.5
2010-05-10 05:31:01 51°14.864 2°54.541 328.3 13.5 322 10.7
2010-05-10 05:31:07 51°14.882 2°54.519 328.3 13.4 322 10.4
2010-05-10 05:31:12 51°14.896 2°54.501 328.8 13.3 323 10.3
2010-05-10 05:31:17 51°14.911 2°54.484 328.6 13.3 323 10.5
2010-05-10 05:31:21 51°14.923 2°54.47 328.9 13.2 324 10.7
2010-05-10 05:31:27 51°14.94 2°54.449 329.5 13.3 322 10.7
2010-05-10 05:31:32 51°14.955 2°54.431 328.8 13.2 323 10.6
2010-05-10 05:31:37 51°14.969 2°54.412 329 13.1 322 8.4
2010-05-10 05:31:42 51°14.983 2°54.394 328.8 12.9 322 8.3
2010-05-10 05:31:46 51°14.994 2°54.38 328.8 12.7 320 8.2
2010-05-10 05:31:52 51°15.01 2°54.358 328.7 12.7 322 8.3
2010-05-10 05:31:57 51°15.024 2°54.342 329.6 12.7 323 8.2
2010-05-10 05:32:02 51°15.039 2°54.325 330.7 12.7 325 8.5
2010-05-10 05:32:07 51°15.054 2°54.309 331.6 12.8 326 8.9
2010-05-10 05:32:12 51°15.068 2°54.294 332.4 12.9 327 9
2010-05-10 05:32:17 51°15.084 2°54.278 333.2 13 326 8.9
2010-05-10 05:32:21 51°15.095 2°54.265 332.6 13.1 326 9.1
2010-05-10 05:32:27 51°15.114 2°54.245 332.3 13.1 326 9.2
2010-05-10 05:32:32 51°15.128 2°54.229 332.3 13.2 326 9.3
2010-05-10 05:32:37 51°15.143 2°54.212 332.1 13.2 325 9.2
2010-05-10 05:32:42 51°15.158 2°54.195 331.8 13.2 325 9.3
2010-05-10 05:32:47 51°15.173 2°54.178 331.6 13.3 325 9.4
2010-05-10 05:32:52 51°15.188 2°54.161 331.3 13.3 325 9.4
2010-05-10 05:32:57 51°15.203 2°54.143 331.4 13.3 323 9.5
2010-05-10 05:33:01 51°15.215 2°54.129 330.9 13.3 323 9.5
2010-05-10 05:33:07 51°15.232 2°54.108 330.6 13.3 323 9.4
2010-05-10 05:33:12 51°15.247 2°54.091 330.7 13.3 323 9.6
2010-05-10 05:33:17 51°15.262 2°54.073 330.6 13.4 323 9.6
2010-05-10 05:33:22 51°15.277 2°54.056 330.9 13.3 324 9.7
2010-05-10 05:33:27 51°15.292 2°54.038 331.4 13.3 324 9.7
2010-05-10 05:33:32 51°15.306 2°54.021 331.6 13.3 324 9.8
2010-05-10 05:33:37 51°15.321 2°54.003 331.6 13.4 323 9.7
2010-05-10 05:33:42 51°15.336 2°53.985 331.1 13.3 324 9.8
2010-05-10 05:33:47 51°15.351 2°53.968 331.1 13.3 324 9.9
2010-05-10 05:33:52 51°15.366 2°53.951 331.6 13.3 325 9.9
2010-05-10 05:33:57 51°15.381 2°53.934 331.9 13.3 324 9.8
2010-05-10 05:34:02 51°15.396 2°53.916 331.8 13.3 324 10.2
2010-05-10 05:34:07 51°15.41 2°53.899 331.6 13.3 323 10.2
2010-05-10 05:34:12 51°15.425 2°53.881 331.1 13.3 324 10.1
2010-05-10 05:34:17 51°15.441 2°53.864 330.8 13.3 324 10
2010-05-10 05:34:22 51°15.455 2°53.847 331.2 13.3 325 10.2
2010-05-10 05:34:27 51°15.47 2°53.83 331.3 13.3 324 10.2
2010-05-10 05:34:32 51°15.485 2°53.813 331 13.4 323 10.3
2010-05-10 05:34:37 51°15.5 2°53.795 330.6 13.3 323 10.4
2010-05-10 05:34:42 51°15.515 2°53.777 330.5 13.3 323 10.3
2010-05-10 05:34:46 51°15.527 2°53.763 330.2 13.3 323 10.4
2010-05-10 05:34:52 51°15.544 2°53.742 330.3 13.3 323 10.4
2010-05-10 05:34:57 51°15.559 2°53.724 331.1 13.3 324 10.3
2010-05-10 05:35:02 51°15.574 2°53.708 331.8 13.2 325 10.6
2010-05-10 05:35:07 51°15.59 2°53.691 332.3 13.2 326 10.6
2010-05-10 05:35:12 51°15.605 2°53.675 333.1 13.2 327 10.5
2010-05-10 05:35:17 51°15.62 2°53.66 334.1 13.2 328 10.6
2010-05-10 05:35:21 51°15.633 2°53.648 334.5 13.1 329 10.6
2010-05-10 05:35:27 51°15.651 2°53.63 335.4 13.1 329 10.7
2010-05-10 05:35:32 51°15.667 2°53.614 335.4 13.2 329 10.8
2010-05-10 05:35:37 51°15.683 2°53.599 335.7 13.1 329 10.9
2010-05-10 05:35:42 51°15.698 2°53.584 336.1 13.2 329 10.8
2010-05-10 05:35:47 51°15.714 2°53.569 336.1 13.1 329 10.9
2010-05-10 05:35:52 51°15.729 2°53.554 336.2 13 330 10.9
2010-05-10 05:35:57 51°15.745 2°53.54 336.9 13.1 330 10.7
2010-05-10 05:36:02 51°15.76 2°53.525 336.7 13.1 328 10.7
2010-05-10 05:36:07 51°15.776 2°53.51 336.4 13.1 329 10.8
2010-05-10 05:36:12 51°15.791 2°53.494 336.3 13.1 328 10.9
2010-05-10 05:36:17 51°15.807 2°53.479 336.1 13.1 328 10.9
2010-05-10 05:36:22 51°15.822 2°53.464 336 13 328 10.9
2010-05-10 05:36:27 51°15.837 2°53.449 336.1 13.1 328 10.9
2010-05-10 05:36:32 51°15.853 2°53.433 336.1 13.1 328 11.2
2010-05-10 05:36:37 51°15.868 2°53.419 336.2 13 329 10.9
2010-05-10 05:36:42 51°15.884 2°53.404 336.5 13 329 10.9
2010-05-10 05:36:47 51°15.899 2°53.389 336.9 13 329 11
2010-05-10 05:36:52 51°15.915 2°53.374 336.8 13 328 10.8
2010-05-10 05:36:57 51°15.93 2°53.359 336.4 13 328 11
2010-05-10 05:37:02 51°15.945 2°53.344 336.2 13 328 11
2010-05-10 05:37:06 51°15.957 2°53.332 336.2 13 328 11
2010-05-10 05:37:12 51°15.976 2°53.313 336.2 13 328 11.1
2010-05-10 05:37:17 51°15.991 2°53.298 336.2 13 328 10.9
2010-05-10 05:37:22 51°16.006 2°53.282 336.1 13 327 10.9
2010-05-10 05:37:27 51°16.021 2°53.267 335.9 13 327 11.1
2010-05-10 05:37:32 51°16.037 2°53.251 336.1 13.1 328 11.4
2010-05-10 05:37:37 51°16.052 2°53.236 336.2 13.1 327 11.1
2010-05-10 05:37:42 51°16.067 2°53.221 336.2 13 328 11
2010-05-10 05:37:47 51°16.083 2°53.205 336.4 13 328 11.3
2010-05-10 05:37:52 51°16.098 2°53.191 336.9 12.9 330 11.1
2010-05-10 05:37:57 51°16.113 2°53.177 337.3 12.9 330 11.4
2010-05-10 05:38:02 51°16.129 2°53.163 337.7 12.8 333 11.3
2010-05-10 05:38:07 51°16.145 2°53.149 337.9 13 331 11.5
2010-05-10 05:38:12 51°16.161 2°53.135 337.6 13 330 11.3
2010-05-10 05:38:17 51°16.176 2°53.12 336.8 13 329 11.4
2010-05-10 05:38:21 51°16.188 2°53.109 336.3 13 329 11.5
2010-05-10 05:38:27 51°16.207 2°53.091 336 12.9 328 11.4
2010-05-10 05:38:32 51°16.222 2°53.076 336 13 329 11.4
2010-05-10 05:38:37 51°16.238 2°53.061 336.1 13 330 11.6
2010-05-10 05:38:42 51°16.253 2°53.047 336.4 13 330 11.5
2010-05-10 05:38:47 51°16.269 2°53.032 336.5 13 330 11.6
2010-05-10 05:38:52 51°16.284 2°53.018 336.2 13 330 11.6
2010-05-10 05:38:57 51°16.3 2°53.004 336.3 13 330 11.5
2010-05-10 05:39:02 51°16.316 2°52.989 336.2 13 330 11.9
2010-05-10 05:39:07 51°16.331 2°52.975 336.6 13 330 11.4
2010-05-10 05:39:12 51°16.347 2°52.961 336.7 13 332 11.7
2010-05-10 05:39:17 51°16.363 2°52.948 337.8 13 332 11.7
2010-05-10 05:39:22 51°16.379 2°52.935 338.6 12.8 334 11.2
2010-05-10 05:39:27 51°16.395 2°52.924 340.3 12.8 335 11.6
2010-05-10 05:39:33 51°16.415 2°52.91 340.8 12.9 337 11.8
2010-05-10 05:39:37 51°16.428 2°52.901 341.7 12.9 336 11.4
2010-05-10 05:39:41 51°16.441 2°52.892 343 12.7 338 11.4
2010-05-10 05:39:47 51°16.461 2°52.88 343.4 12.7 338 11.5
2010-05-10 05:39:52 51°16.477 2°52.869 343.7 12.8 339 11.5
2010-05-10 05:39:57 51°16.493 2°52.859 343.9 12.8 339 11.4
2010-05-10 05:40:02 51°16.51 2°52.849 344.3 12.8 339 11.4
2010-05-10 05:40:07 51°16.527 2°52.839 344.8 12.8 339 11.3
2010-05-10 05:40:12 51°16.543 2°52.829 344.8 12.7 339 11
2010-05-10 05:40:17 51°16.56 2°52.819 344.8 12.8 339 11.3
2010-05-10 05:40:22 51°16.576 2°52.809 344.9 12.7 340 10.9
2010-05-10 05:40:27 51°16.593 2°52.799 345.5 12.7 340 10.7
2010-05-10 05:40:32 51°16.609 2°52.789 345.1 12.7 339 10.8
2010-05-10 05:40:37 51°16.626 2°52.78 345.1 12.7 340 10.9
2010-05-10 05:40:42 51°16.642 2°52.77 344.9 12.7 340 10.7
2010-05-10 05:40:47 51°16.659 2°52.76 345 12.7 340 10.5
2010-05-10 05:40:52 51°16.675 2°52.75 345 12.7 339 10.4
2010-05-10 05:40:57 51°16.692 2°52.74 344.8 12.7 340 10.5
2010-05-10 05:41:01 51°16.705 2°52.733 344.8 12.7 339 10.4
2010-05-10 05:41:07 51°16.725 2°52.721 344.7 12.7 340 10
2010-05-10 05:41:12 51°16.741 2°52.71 344.7 12.6 339 9.6
2010-05-10 05:41:17 51°16.757 2°52.701 344.8 12.6 340 9.5
2010-05-10 05:41:22 51°16.773 2°52.691 345.2 12.5 340 9.3
2010-05-10 05:41:27 51°16.79 2°52.681 344.9 12.5 339 9.6
2010-05-10 05:41:32 51°16.806 2°52.671 344.5 12.5 339 9.2
2010-05-10 05:41:37 51°16.822 2°52.661 344.2 12.5 339 9.1
2010-05-10 05:41:42 51°16.838 2°52.652 344.8 12.6 339 9.2
2010-05-10 05:41:47 51°16.854 2°52.641 344.8 12.5 339 9
2010-05-10 05:41:52 51°16.87 2°52.631 344.8 12.5 339 9.2
2010-05-10 05:41:57 51°16.887 2°52.622 344.9 12.5 339 9.2
2010-05-10 05:42:02 51°16.903 2°52.612 344.9 12.5 339 9.1
2010-05-10 05:42:07 51°16.919 2°52.602 345 12.5 338 9.4
2010-05-10 05:42:12 51°16.935 2°52.591 344.5 12.5 339 9.5
2010-05-10 05:42:17 51°16.952 2°52.581 344.8 12.6 338 9.3
2010-05-10 05:42:22 51°16.968 2°52.571 344.5 12.6 338 9.3
2010-05-10 05:42:27 51°16.984 2°52.561 344.6 12.6 339 9.4
2010-05-10 05:42:32 51°17 2°52.551 344.4 12.5 339 9.1
2010-05-10 05:42:37 51°17.016 2°52.541 344.8 12.4 339 9.3
2010-05-10 05:42:42 51°17.032 2°52.531 344.9 12.5 339 9.4
2010-05-10 05:42:47 51°17.049 2°52.521 345 12.4 339 9
2010-05-10 05:42:52 51°17.065 2°52.511 344.9 12.5 338 9.3
2010-05-10 05:42:57 51°17.081 2°52.501 344.8 12.5 339 9.4
2010-05-10 05:43:02 51°17.097 2°52.491 344.8 12.5 339 9.1
2010-05-10 05:43:07 51°17.113 2°52.481 344.5 12.6 338 9.4
2010-05-10 05:43:12 51°17.129 2°52.47 344.4 12.5 338 9.7
2010-05-10 05:43:17 51°17.146 2°52.46 344.8 12.6 338 9.4
2010-05-10 05:43:22 51°17.162 2°52.449 344.5 12.5 338 9.6
2010-05-10 05:43:27 51°17.178 2°52.438 344.4 12.6 338 9.7
2010-05-10 05:43:32 51°17.194 2°52.428 344.2 12.6 338 9.7
2010-05-10 05:43:37 51°17.21 2°52.418 344.3 12.6 337 9.5
2010-05-10 05:43:42 51°17.226 2°52.407 344.1 12.6 337 9.8
2010-05-10 05:43:47 51°17.242 2°52.396 344.1 12.6 337 9.9
2010-05-10 05:43:52 51°17.258 2°52.385 344.4 12.6 337 9.8
2010-05-10 05:43:57 51°17.274 2°52.375 344.6 12.6 338 10.1
2010-05-10 05:44:01 51°17.287 2°52.367 344.8 12.5 338 9.7
2010-05-10 05:44:07 51°17.307 2°52.355 344.8 12.6 339 9.9
2010-05-10 05:44:12 51°17.323 2°52.344 345 12.6 339 9.9
2010-05-10 05:44:17 51°17.339 2°52.334 344.9 12.6 338 10.3
2010-05-10 05:44:22 51°17.355 2°52.324 344.8 12.6 339 10.1
2010-05-10 05:44:27 51°17.372 2°52.314 345 12.5 338 10
2010-05-10 05:44:32 51°17.388 2°52.304 344.9 12.5 338 9.8
2010-05-10 05:44:37 51°17.404 2°52.293 344.9 12.6 338 10.2
2010-05-10 05:44:42 51°17.42 2°52.283 344.6 12.6 338 10.1
2010-05-10 05:44:47 51°17.436 2°52.272 344.7 12.6 338 10
2010-05-10 05:44:52 51°17.452 2°52.262 344.7 12.6 338 10.5
2010-05-10 05:44:57 51°17.469 2°52.251 344.6 12.6 338 10.7
2010-05-10 05:45:02 51°17.485 2°52.241 344.5 12.6 338 10.9
2010-05-10 05:45:07 51°17.501 2°52.231 344.5 12.7 338 10.9
2010-05-10 05:45:12 51°17.518 2°52.221 344.4 12.7 338 10.8
2010-05-10 05:45:17 51°17.534 2°52.21 344.4 12.6 338 10.9
2010-05-10 05:45:21 51°17.547 2°52.202 344.5 12.6 338 10.9
2010-05-10 05:45:27 51°17.567 2°52.19 344.8 12.7 339 11
2010-05-10 05:45:32 51°17.583 2°52.179 344.9 12.6 339 11
2010-05-10 05:45:37 51°17.599 2°52.169 344.8 12.6 339 10.8
2010-05-10 05:45:42 51°17.616 2°52.159 344.8 12.7 338 10.9
2010-05-10 05:45:47 51°17.632 2°52.149 344.3 12.7 338 10.9
2010-05-10 05:45:52 51°17.648 2°52.138 344.2 12.6 337 10.8
2010-05-10 05:45:57 51°17.664 2°52.127 344 12.5 338 10.7
2010-05-10 05:46:02 51°17.68 2°52.116 343.7 12.6 337 11
2010-05-10 05:46:07 51°17.697 2°52.106 344 12.6 339 10.7
2010-05-10 05:46:12 51°17.713 2°52.095 344.2 12.6 338 10.8
2010-05-10 05:46:17 51°17.729 2°52.085 344 12.6 338 10.6
2010-05-10 05:46:22 51°17.745 2°52.074 344.1 12.6 338 10.8
2010-05-10 05:46:27 51°17.761 2°52.064 344.2 12.5 339 10.6
2010-05-10 05:46:33 51°17.78 2°52.051 344.2 12.5 338 10.4
2010-05-10 05:46:37 51°17.793 2°52.043 344.2 12.5 338 10.5
2010-05-10 05:46:41 51°17.806 2°52.035 344.5 12.6 339 10.5
2010-05-10 05:46:47 51°17.826 2°52.023 344.7 12.6 338 10.4
2010-05-10 05:46:52 51°17.842 2°52.013 344.4 12.5 337 9.9
2010-05-10 05:46:57 51°17.857 2°52.001 343.7 12.4 337 10.1
2010-05-10 05:47:02 51°17.873 2°51.99 344.1 12.5 338 10
2010-05-10 05:47:07 51°17.889 2°51.98 344.4 12.4 337 9.6
2010-05-10 05:47:12 51°17.906 2°51.971 344.7 12.4 338 9.9
2010-05-10 05:47:17 51°17.921 2°51.96 344.2 12.4 337 9.8
2010-05-10 05:47:22 51°17.937 2°51.95 344.5 12.4 338 9.9
2010-05-10 05:47:27 51°17.953 2°51.939 344.3 12.5 338 10
2010-05-10 05:47:32 51°17.969 2°51.928 344.1 12.4 338 10
2010-05-10 05:47:37 51°17.985 2°51.918 344.1 12.4 338 9.7
2010-05-10 05:47:42 51°18.001 2°51.908 344.1 12.5 338 10
2010-05-10 05:47:47 51°18.017 2°51.897 344.2 12.5 338 10.3
2010-05-10 05:47:52 51°18.033 2°51.887 344.6 12.5 338 10.2
2010-05-10 05:47:57 51°18.049 2°51.877 344.7 12.5 338 10.2
2010-05-10 05:48:01 51°18.062 2°51.869 344.1 12.5 337 10.2
2010-05-10 05:48:07 51°18.081 2°51.856 344.2 12.5 338 10.3
2010-05-10 05:48:12 51°18.097 2°51.845 344.3 12.5 337 10.3
2010-05-10 05:48:17 51°18.113 2°51.834 344.2 12.5 338 10.4
2010-05-10 05:48:22 51°18.129 2°51.825 344.8 12.5 339 10.4
2010-05-10 05:48:27 51°18.146 2°51.814 344.8 12.6 338 10.6
2010-05-10 05:48:32 51°18.162 2°51.804 344.8 12.6 338 10.8
2010-05-10 05:48:37 51°18.178 2°51.794 344.5 12.6 338 10.6
2010-05-10 05:48:42 51°18.195 2°51.784 344.6 12.6 339 10.8
2010-05-10 05:48:46 51°18.208 2°51.776 344.6 12.6 338 10.7
2010-05-10 05:48:52 51°18.227 2°51.764 344.7 12.6 339 10.9
2010-05-10 05:48:57 51°18.243 2°51.753 344.7 12.7 338 11.2
2010-05-10 05:49:02 51°18.26 2°51.742 344.6 12.7 339 11.1
2010-05-10 05:49:07 51°18.276 2°51.732 344.5 12.7 338 11.2
2010-05-10 05:49:12 51°18.292 2°51.722 344.7 12.7 338 11
2010-05-10 05:49:17 51°18.308 2°51.711 344.7 12.7 338 11.7
2010-05-10 05:49:21 51°18.322 2°51.703 344.7 12.6 338 11.3
2010-05-10 05:49:27 51°18.341 2°51.691 344.6 12.6 338 11.4
2010-05-10 05:49:32 51°18.358 2°51.681 344.6 12.7 339 11.9
2010-05-10 05:49:37 51°18.374 2°51.671 344.8 12.7 339 11.7
2010-05-10 05:49:42 51°18.39 2°51.66 344.8 12.8 338 11.9
2010-05-10 05:49:47 51°18.406 2°51.648 344.2 12.8 336 11.8
2010-05-10 05:49:52 51°18.422 2°51.637 343.6 12.7 337 11.9
2010-05-10 05:49:57 51°18.438 2°51.625 343.8 12.7 337 12
2010-05-10 05:50:02 51°18.454 2°51.614 343.4 12.7 337 12.5
2010-05-10 05:50:07 51°18.47 2°51.603 344.1 12.7 337 12.7
2010-05-10 05:50:13 51°18.49 2°51.589 343.8 12.6 336 12.2
2010-05-10 05:50:17 51°18.503 2°51.582 343.8 12.6 337 12.2
2010-05-10 05:50:21 51°18.516 2°51.573 343.9 12.7 336 12.8
2010-05-10 05:50:27 51°18.536 2°51.56 343.9 12.6 337 12.7
2010-05-10 05:50:32 51°18.552 2°51.549 344.1 12.6 337 12.8
2010-05-10 05:50:37 51°18.568 2°51.538 344.1 12.6 337 12.9
2010-05-10 05:50:42 51°18.585 2°51.528 344.2 12.7 338 13.1
2010-05-10 05:50:47 51°18.601 2°51.516 344.2 12.7 336 13.3
2010-05-10 05:50:52 51°18.617 2°51.506 344.1 12.7 337 13.3
2010-05-10 05:50:57 51°18.633 2°51.494 344 12.8 336 13.5
2010-05-10 05:51:02 51°18.649 2°51.483 343.9 12.7 337 13.3
2010-05-10 05:51:07 51°18.666 2°51.472 344 12.7 336 13.6
2010-05-10 05:51:13 51°18.685 2°51.458 343.9 12.7 337 13.7
2010-05-10 05:51:17 51°18.697 2°51.449 343.9 12.6 336 13.5
2010-05-10 05:51:22 51°18.714 2°51.438 344.1 12.7 336 14.1
2010-05-10 05:51:27 51°18.73 2°51.427 343.8 12.7 337 13.9
2010-05-10 05:51:32 51°18.747 2°51.416 344.1 12.7 337 13.8
2010-05-10 05:51:37 51°18.763 2°51.405 344.1 12.7 336 13.8
2010-05-10 05:51:41 51°18.776 2°51.396 344 12.7 336 13.9
2010-05-10 05:51:47 51°18.795 2°51.383 343.7 12.7 336 14.4
2010-05-10 05:51:52 51°18.81 2°51.371 343.4 12.6 336 14.2
2010-05-10 05:51:57 51°18.827 2°51.36 343.7 12.6 336 14.3
2010-05-10 05:52:02 51°18.843 2°51.348 344 12.7 336 14.3
2010-05-10 05:52:07 51°18.858 2°51.336 343.7 12.7 336 14.3
2010-05-10 05:52:12 51°18.875 2°51.325 343.9 12.6 336 14
2010-05-10 05:52:17 51°18.891 2°51.314 343.9 12.6 336 14.4
2010-05-10 05:52:22 51°18.906 2°51.302 344 12.6 336 14.4
2010-05-10 05:52:27 51°18.922 2°51.291 344 12.6 336 14.5
2010-05-10 05:52:32 51°18.938 2°51.28 344.2 12.6 336 14.3
2010-05-10 05:52:37 51°18.954 2°51.268 344.4 12.6 336 14.3
2010-05-10 05:52:42 51°18.97 2°51.257 344.5 12.5 337 14.4
2010-05-10 05:52:47 51°18.986 2°51.246 344.5 12.6 336 14.9
2010-05-10 05:52:53 51°19.005 2°51.233 344.4 12.5 336 14.5
2010-05-10 05:52:57 51°19.018 2°51.224 344.5 12.5 336 14.9
2010-05-10 05:53:01 51°19.031 2°51.215 344.4 12.7 337 15.1
2010-05-10 05:53:07 51°19.05 2°51.202 344.6 12.6 336 14.7
2010-05-10 05:53:12 51°19.066 2°51.19 344.2 12.5 336 14.6
2010-05-10 05:53:17 51°19.082 2°51.179 344.1 12.5 336 14.4
2010-05-10 05:53:22 51°19.098 2°51.169 344.4 12.5 337 14.9
2010-05-10 05:53:27 51°19.115 2°51.157 344.7 12.6 336 15
2010-05-10 05:53:32 51°19.13 2°51.146 344.4 12.6 337 14.9
2010-05-10 05:53:37 51°19.146 2°51.134 344.3 12.6 336 14.7
2010-05-10 05:53:42 51°19.161 2°51.123 344.2 12.6 337 14.7
2010-05-10 05:53:47 51°19.177 2°51.111 344.2 12.7 337 14.7
2010-05-10 05:53:52 51°19.194 2°51.101 344.4 12.5 337 14.4
2010-05-10 05:53:57 51°19.21 2°51.09 344.4 12.5 336 14.4
2010-05-10 05:54:02 51°19.226 2°51.078 344.1 12.6 336 14.8
2010-05-10 05:54:07 51°19.241 2°51.067 344 12.5 336 15
2010-05-10 05:54:13 51°19.26 2°51.053 344.1 12.5 336 14.8
2010-05-10 05:54:17 51°19.273 2°51.044 344.2 12.5 337 14.5
2010-05-10 05:54:21 51°19.285 2°51.035 344.5 12.6 336 14.7
2010-05-10 05:54:27 51°19.305 2°51.022 344.3 12.5 337 14.4
2010-05-10 05:54:32 51°19.321 2°51.011 344.4 12.5 337 14.7
2010-05-10 05:54:37 51°19.337 2°51 344.5 12.4 337 14.4
2010-05-10 05:54:42 51°19.354 2°50.99 344.4 12.5 336 14.8
2010-05-10 05:54:47 51°19.37 2°50.979 344.2 12.4 337 14.2
2010-05-10 05:54:52 51°19.386 2°50.968 344.2 12.5 337 14.6
2010-05-10 05:54:57 51°19.401 2°50.957 344.2 12.5 337 14.1
2010-05-10 05:55:02 51°19.417 2°50.947 344.3 12.5 337 14.1
2010-05-10 05:55:07 51°19.433 2°50.936 344.4 12.5 337 13.9
2010-05-10 05:55:12 51°19.449 2°50.924 344.2 12.6 337 14
2010-05-10 05:55:17 51°19.465 2°50.913 344.1 12.6 337 14
2010-05-10 05:55:22 51°19.481 2°50.902 343.7 12.7 337 13.8
2010-05-10 05:55:27 51°19.498 2°50.892 344.1 12.7 338 13.7
2010-05-10 05:55:32 51°19.514 2°50.88 344.2 12.7 337 13.3
2010-05-10 05:55:37 51°19.53 2°50.869 344.2 12.7 337 13.4
2010-05-10 05:55:42 51°19.547 2°50.858 344.1 12.7 337 12.7
2010-05-10 05:55:47 51°19.564 2°50.848 344.1 12.6 338 12.8
2010-05-10 05:55:52 51°19.58 2°50.838 344.5 12.7 337 12.7
2010-05-10 05:55:57 51°19.596 2°50.827 344.2 12.7 337 12.5
2010-05-10 05:56:02 51°19.612 2°50.817 344.2 12.5 337 12.4
2010-05-10 05:56:07 51°19.627 2°50.805 344.1 12.6 337 12.6
2010-05-10 05:56:12 51°19.643 2°50.795 344.2 12.6 337 12.4
2010-05-10 05:56:17 51°19.659 2°50.783 343.8 12.6 337 11.9
2010-05-10 05:56:22 51°19.676 2°50.773 344.4 12.6 337 12.4
2010-05-10 05:56:27 51°19.692 2°50.762 344.1 12.6 337 12.5
2010-05-10 05:56:33 51°19.71 2°50.749 343.9 12.5 338 11.9
2010-05-10 05:56:37 51°19.723 2°50.74 344.1 12.5 337 12
2010-05-10 05:56:41 51°19.736 2°50.73 343.9 12.6 338 12.2
2010-05-10 05:56:47 51°19.755 2°50.719 344.5 12.6 338 12.3
2010-05-10 05:56:52 51°19.772 2°50.708 344.6 12.6 338 11.8
2010-05-10 05:56:57 51°19.788 2°50.697 344.7 12.7 338 11.8
2010-05-10 05:57:02 51°19.804 2°50.686 344.2 12.6 337 11.5
2010-05-10 05:57:07 51°19.82 2°50.675 344.4 12.6 338 11.9
2010-05-10 05:57:12 51°19.836 2°50.664 344.4 12.7 338 12
2010-05-10 05:57:17 51°19.854 2°50.654 344.2 12.7 337 12.4
2010-05-10 05:57:22 51°19.87 2°50.643 344.1 12.7 337 12.4
2010-05-10 05:57:27 51°19.887 2°50.633 344.4 12.7 338 12.6
2010-05-10 05:57:32 51°19.904 2°50.623 344.2 12.7 337 12.7
2010-05-10 05:57:37 51°19.92 2°50.613 344.4 12.7 338 13.3
2010-05-10 05:57:42 51°19.937 2°50.601 344.5 12.8 337 13.5
2010-05-10 05:57:47 51°19.953 2°50.591 344.3 12.7 337 13.7
2010-05-10 05:57:53 51°19.972 2°50.577 344.8 12.8 337 14
2010-05-10 05:57:57 51°19.985 2°50.568 344.4 12.8 337 14
2010-05-10 05:58:01 51°19.998 2°50.559 344.3 12.8 337 14.4
2010-05-10 05:58:07 51°20.018 2°50.546 344.1 12.8 337 14.4
2010-05-10 05:58:12 51°20.034 2°50.536 344.1 12.8 337 15.1
2010-05-10 05:58:17 51°20.05 2°50.524 344 12.8 336 15.2
2010-05-10 05:58:22 51°20.066 2°50.512 343.7 12.7 336 14.9
2010-05-10 05:58:27 51°20.082 2°50.501 343.6 12.7 337 15.4
2010-05-10 05:58:32 51°20.098 2°50.49 343.9 12.7 337 15.5
2010-05-10 05:58:37 51°20.115 2°50.479 344.4 12.8 336 15.7
2010-05-10 05:58:42 51°20.131 2°50.467 343.8 12.7 336 15
2010-05-10 05:58:47 51°20.147 2°50.456 344 12.7 336 15
2010-05-10 05:58:52 51°20.163 2°50.445 344 12.7 336 15.8
2010-05-10 05:58:57 51°20.179 2°50.433 344 12.7 336 16
2010-05-10 05:59:02 51°20.196 2°50.423 344.6 12.8 338 15.8
2010-05-10 05:59:07 51°20.212 2°50.412 344.7 12.7 337 15.7
2010-05-10 05:59:13 51°20.232 2°50.398 344.7 12.8 336 16.1
2010-05-10 05:59:17 51°20.244 2°50.388 344.1 12.8 336 16.3
2010-05-10 05:59:21 51°20.258 2°50.38 344.1 12.9 336 16.4
2010-05-10 05:59:27 51°20.277 2°50.366 344.1 12.8 337 16.5
2010-05-10 05:59:32 51°20.293 2°50.355 344.4 12.8 336 16.6
2010-05-10 05:59:37 51°20.309 2°50.343 344.2 12.8 337 16.7
2010-05-10 05:59:42 51°20.325 2°50.331 344.4 12.8 335 17.2
2010-05-10 05:59:47 51°20.341 2°50.319 344.1 12.8 335 17.9
2010-05-10 05:59:52 51°20.357 2°50.308 343.8 12.8 335 17.6
2010-05-10 05:59:57 51°20.374 2°50.296 344 12.8 335 17.7
2010-05-10 06:00:02 51°20.39 2°50.285 344.4 12.6 336 17.7
2010-05-10 06:00:07 51°20.406 2°50.274 344.7 12.7 336 18.7
2010-05-10 06:00:13 51°20.425 2°50.26 344.8 12.7 336 18.5
2010-05-10 06:00:17 51°20.438 2°50.251 344.8 12.7 336 18.9
2010-05-10 06:00:22 51°20.454 2°50.239 344.7 12.8 335 19.3
2010-05-10 06:00:27 51°20.47 2°50.227 344.4 12.8 335 19.4
2010-05-10 06:00:32 51°20.486 2°50.215 344.4 12.9 334 20
2010-05-10 06:00:37 51°20.502 2°50.203 344.1 12.9 334 19.7
2010-05-10 06:00:42 51°20.518 2°50.19 344 12.8 334 20
2010-05-10 06:00:47 51°20.534 2°50.178 344 12.9 335 20.4
2010-05-10 06:00:52 51°20.551 2°50.166 344.2 12.9 334 20.5
2010-05-10 06:00:57 51°20.567 2°50.154 344.1 12.8 335 20.5
2010-05-10 06:01:02 51°20.582 2°50.142 344.2 12.9 335 21
2010-05-10 06:01:07 51°20.598 2°50.129 344.3 12.9 335 21.3
2010-05-10 06:01:12 51°20.615 2°50.117 344.4 12.9 335 21.5
2010-05-10 06:01:17 51°20.631 2°50.105 344.3 12.9 335 21.8
2010-05-10 06:01:22 51°20.647 2°50.093 344.4 12.9 335 21.5
2010-05-10 06:01:27 51°20.664 2°50.081 344.6 12.8 336 22
2010-05-10 06:01:33 51°20.683 2°50.067 344.8 12.8 336 22.1
2010-05-10 06:01:37 51°20.696 2°50.057 345 12.9 335 22.6
2010-05-10 06:01:41 51°20.708 2°50.047 344.7 12.8 335 22.6
2010-05-10 06:01:47 51°20.727 2°50.033 344.5 12.8 335 22.6
2010-05-10 06:01:52 51°20.743 2°50.02 344.2 12.9 335 22.6
2010-05-10 06:01:57 51°20.759 2°50.007 344.3 12.9 335 22.7
2010-05-10 06:02:02 51°20.775 2°49.995 344.2 12.8 334 22.8
2010-05-10 06:02:07 51°20.791 2°49.983 344.1 12.8 335 22.9
2010-05-10 06:02:12 51°20.807 2°49.97 344.3 12.9 335 22.9
2010-05-10 06:02:17 51°20.823 2°49.958 344.4 12.9 335 23
2010-05-10 06:02:22 51°20.839 2°49.946 344.4 12.8 335 22.6
2010-05-10 06:02:27 51°20.856 2°49.934 344.2 12.8 335 23
2010-05-10 06:02:33 51°20.875 2°49.919 344.4 12.8 335 22.7
2010-05-10 06:02:37 51°20.888 2°49.909 344.3 12.8 334 23
2010-05-10 06:02:42 51°20.904 2°49.897 344.5 12.8 335 23
2010-05-10 06:02:47 51°20.92 2°49.885 344.4 12.9 334 22.6
2010-05-10 06:02:52 51°20.936 2°49.872 344.5 12.8 335 22.6
2010-05-10 06:02:57 51°20.952 2°49.86 344.4 12.8 334 22.9
2010-05-10 06:03:02 51°20.968 2°49.848 344.4 12.9 335 22.9
2010-05-10 06:03:07 51°20.984 2°49.835 344.2 12.8 333 22.9
2010-05-10 06:03:12 51°21 2°49.822 343.8 12.9 335 23.2
2010-05-10 06:03:17 51°21.016 2°49.81 344.4 13 334 23.4
2010-05-10 06:03:22 51°21.032 2°49.798 344.4 12.9 334 22.8
2010-05-10 06:03:27 51°21.048 2°49.785 344.5 12.9 334 22.9
2010-05-10 06:03:32 51°21.064 2°49.773 344.1 12.8 334 22.8
2010-05-10 06:03:37 51°21.08 2°49.761 344.1 12.8 334 22.6
2010-05-10 06:03:42 51°21.096 2°49.749 344.3 12.9 335 23.3
2010-05-10 06:03:47 51°21.112 2°49.737 344.4 12.8 334 22.7
2010-05-10 06:03:52 51°21.128 2°49.724 344.1 12.8 334 22.5
2010-05-10 06:03:57 51°21.144 2°49.712 344.1 12.7 335 22.7
2010-05-10 06:04:02 51°21.16 2°49.699 344.5 12.8 334 22.6
2010-05-10 06:04:07 51°21.176 2°49.687 344.5 12.7 335 22.2
2010-05-10 06:04:12 51°21.192 2°49.676 344.4 12.7 336 22.5
2010-05-10 06:04:17 51°21.208 2°49.664 344.8 12.8 335 22.4
2010-05-10 06:04:22 51°21.224 2°49.652 344.6 12.8 335 22.4
2010-05-10 06:04:27 51°21.24 2°49.64 344.7 12.7 336 22
2010-05-10 06:04:32 51°21.256 2°49.628 344.8 12.7 335 22
2010-05-10 06:04:37 51°21.272 2°49.617 344.4 12.7 336 22.2
2010-05-10 06:04:42 51°21.288 2°49.605 344.8 12.7 335 22.1
2010-05-10 06:04:47 51°21.304 2°49.593 344.5 12.7 336 22
2010-05-10 06:04:52 51°21.32 2°49.581 344.4 12.7 334 22.1
2010-05-10 06:04:57 51°21.336 2°49.569 344.2 12.6 335 21.8
2010-05-10 06:05:02 51°21.352 2°49.558 344.1 12.7 335 22.1
2010-05-10 06:05:06 51°21.365 2°49.548 344.2 12.7 336 21.9
2010-05-10 06:05:12 51°21.384 2°49.534 344.4 12.7 335 21.9
2010-05-10 06:05:17 51°21.4 2°49.523 344.2 12.6 336 22.2
2010-05-10 06:05:22 51°21.416 2°49.511 344 12.6 335 21.5
2010-05-10 06:05:27 51°21.432 2°49.499 344 12.6 336 21.2
2010-05-10 06:05:32 51°21.448 2°49.488 344.1 12.7 336 21.3
2010-05-10 06:05:37 51°21.464 2°49.476 344.1 12.6 336 22.1
2010-05-10 06:05:42 51°21.48 2°49.465 344.4 12.6 336 21.9
2010-05-10 06:05:47 51°21.496 2°49.453 344.4 12.7 335 22
2010-05-10 06:05:52 51°21.512 2°49.442 344.4 12.6 335 21.9
2010-05-10 06:05:57 51°21.528 2°49.43 344.2 12.7 336 21.8
2010-05-10 06:06:02 51°21.543 2°49.419 344.1 12.5 336 22
2010-05-10 06:06:07 51°21.559 2°49.407 344.4 12.6 335 21.9
2010-05-10 06:06:12 51°21.575 2°49.395 344.1 12.6 336 21.9
2010-05-10 06:06:17 51°21.591 2°49.384 344.2 12.6 336 22.2
2010-05-10 06:06:22 51°21.607 2°49.373 344.2 12.7 335 22.7
2010-05-10 06:06:27 51°21.623 2°49.361 344.2 12.6 335 22
2010-05-10 06:06:33 51°21.642 2°49.348 344.2 12.6 336 22.1
2010-05-10 06:06:37 51°21.655 2°49.338 344.1 12.6 336 22.4
2010-05-10 06:06:41 51°21.668 2°49.329 344.1 12.7 335 22.5
2010-05-10 06:06:47 51°21.687 2°49.315 344.1 12.7 336 22.6
2010-05-10 06:06:52 51°21.703 2°49.304 344.1 12.7 336 22.6
2010-05-10 06:06:57 51°21.719 2°49.292 344.5 12.7 337 22.9
2010-05-10 06:07:02 51°21.735 2°49.281 344.6 12.6 336 22.7
2010-05-10 06:07:07 51°21.751 2°49.27 344.1 12.7 336 23.2
2010-05-10 06:07:12 51°21.768 2°49.259 344.4 12.7 337 23.5
2010-05-10 06:07:17 51°21.784 2°49.247 344.2 12.7 336 23
2010-05-10 06:07:22 51°21.8 2°49.236 344 12.6 336 22.9
2010-05-10 06:07:27 51°21.815 2°49.224 343.5 12.7 336 23.6
2010-05-10 06:07:32 51°21.832 2°49.213 344 12.7 337 23.6
2010-05-10 06:07:37 51°21.848 2°49.202 344.2 12.7 336 23.4
2010-05-10 06:07:42 51°21.864 2°49.191 344.2 12.7 337 23.2
2010-05-10 06:07:47 51°21.88 2°49.18 344.5 12.8 337 23.2
2010-05-10 06:07:52 51°21.897 2°49.169 344.2 12.7 337 22.7
2010-05-10 06:07:57 51°21.913 2°49.157 344.4 12.7 337 23
2010-05-10 06:08:02 51°21.929 2°49.146 344.4 12.8 336 23.5
2010-05-10 06:08:07 51°21.945 2°49.134 343.8 12.8 336 23.2
2010-05-10 06:08:13 51°21.965 2°49.121 343.9 12.7 336 23.2
2010-05-10 06:08:17 51°21.978 2°49.111 343.8 12.8 336 23.1
2010-05-10 06:08:21 51°21.991 2°49.103 344.3 12.8 337 23.1
2010-05-10 06:08:27 51°22.01 2°49.089 344.3 12.8 337 23.3
2010-05-10 06:08:32 51°22.027 2°49.078 344.6 12.8 337 23.5
2010-05-10 06:08:37 51°22.043 2°49.068 344.8 12.8 338 23.3
2010-05-10 06:08:42 51°22.059 2°49.057 344.7 12.8 336 23.1
2010-05-10 06:08:46 51°22.072 2°49.048 344.4 12.8 338 23.5
2010-05-10 06:08:52 51°22.092 2°49.034 344.2 12.8 336 23.5
2010-05-10 06:08:57 51°22.108 2°49.023 343.8 12.7 337 23.4
2010-05-10 06:09:02 51°22.124 2°49.012 344.1 12.7 337 23.7
2010-05-10 06:09:07 51°22.141 2°49 344.1 12.7 337 23.4
2010-05-10 06:09:13 51°22.16 2°48.987 344.4 12.7 337 23.5
2010-05-10 06:09:17 51°22.173 2°48.978 344.5 12.6 338 23.2
2010-05-10 06:09:22 51°22.189 2°48.967 344.7 12.8 336 24
2010-05-10 06:09:27 51°22.205 2°48.956 344.5 12.7 338 24
2010-05-10 06:09:32 51°22.221 2°48.945 344.1 12.5 336 22.9
2010-05-10 06:09:37 51°22.237 2°48.934 344.2 12.6 337 22.9
2010-05-10 06:09:41 51°22.25 2°48.924 343.9 12.6 336 23.2
2010-05-10 06:09:47 51°22.269 2°48.912 344.4 12.6 337 22.9
2010-05-10 06:09:52 51°22.286 2°48.9 343.9 12.7 337 22.6
2010-05-10 06:09:57 51°22.302 2°48.89 343.9 12.6 337 21.9
2010-05-10 06:10:02 51°22.318 2°48.878 343.8 12.5 336 20.6
2010-05-10 06:10:07 51°22.334 2°48.867 343.7 12.6 337 19.9
2010-05-10 06:10:12 51°22.35 2°48.856 344.1 12.6 337 18.7
2010-05-10 06:10:17 51°22.366 2°48.845 344.1 12.6 337 21.4
2010-05-10 06:10:22 51°22.382 2°48.835 344.8 12.6 338 22.5
2010-05-10 06:10:27 51°22.398 2°48.824 344.5 12.7 338 22.3
2010-05-10 06:10:32 51°22.415 2°48.813 344.8 12.7 337 22.2
2010-05-10 06:10:37 51°22.431 2°48.802 344.1 12.7 336 22.3
2010-05-10 06:10:42 51°22.447 2°48.791 344.2 12.6 336 21.4
2010-05-10 06:10:47 51°22.463 2°48.779 344 12.6 336 21.7
2010-05-10 06:10:53 51°22.482 2°48.766 344.1 12.5 336 20
2010-05-10 06:10:57 51°22.495 2°48.756 343.5 12.5 336 18.9
2010-05-10 06:11:01 51°22.507 2°48.748 343.8 12.5 337 18.6
2010-05-10 06:11:07 51°22.526 2°48.734 344.4 12.4 336 18.2
2010-05-10 06:11:12 51°22.542 2°48.723 343.8 12.4 338 17.1
2010-05-10 06:11:17 51°22.558 2°48.713 344.3 12.4 338 16
2010-05-10 06:11:22 51°22.574 2°48.702 344.5 12.4 337 17.8
2010-05-10 06:11:27 51°22.59 2°48.691 344.2 12.5 338 18
2010-05-10 06:11:32 51°22.605 2°48.68 344.1 12.5 336 17.1
2010-05-10 06:11:37 51°22.621 2°48.668 343.8 12.5 336 15.3
2010-05-10 06:11:42 51°22.637 2°48.657 344.1 12.4 336 16.7
2010-05-10 06:11:47 51°22.653 2°48.647 344.1 12.4 337 18
2010-05-10 06:11:52 51°22.669 2°48.636 344.2 12.4 338 18.6
2010-05-10 06:11:57 51°22.685 2°48.624 344.2 12.5 336 17.8
2010-05-10 06:12:02 51°22.701 2°48.614 344.6 12.4 338 15.1
2010-05-10 06:12:07 51°22.716 2°48.603 344.6 12.5 336 16.7
2010-05-10 06:12:12 51°22.732 2°48.592 344.1 12.4 337 18
2010-05-10 06:12:17 51°22.748 2°48.582 344.5 12.4 337 18.7
2010-05-10 06:12:22 51°22.764 2°48.57 344.2 12.5 336 18.6
2010-05-10 06:12:27 51°22.78 2°48.559 344.1 12.5 337 18.4
2010-05-10 06:12:32 51°22.796 2°48.548 344.1 12.4 336 17.6
2010-05-10 06:12:37 51°22.811 2°48.537 344 12.4 336 18.4
2010-05-10 06:12:42 51°22.827 2°48.525 344.4 12.5 335 17.3
2010-05-10 06:12:47 51°22.843 2°48.514 343.9 12.2 337 15.5
2010-05-10 06:12:52 51°22.859 2°48.503 344 12.4 335 17.1
2010-05-10 06:12:57 51°22.874 2°48.492 344.5 12.4 337 18.1
2010-05-10 06:13:02 51°22.89 2°48.481 344.4 12.4 336 18.6
2010-05-10 06:13:07 51°22.906 2°48.47 344.2 12.5 337 18.5
2010-05-10 06:13:12 51°22.922 2°48.459 344.8 12.4 336 17.6
2010-05-10 06:13:17 51°22.938 2°48.447 344.1 12.5 335 18.3
2010-05-10 06:13:22 51°22.954 2°48.437 344.4 12.5 337 18.8
2010-05-10 06:13:27 51°22.97 2°48.425 344.5 12.5 336 19.7
2010-05-10 06:13:32 51°22.986 2°48.414 344.6 12.6 336 19.9
2010-05-10 06:13:37 51°23.002 2°48.403 344.5 12.6 336 20.1
2010-05-10 06:13:41 51°23.015 2°48.394 344.5 12.5 336 19.9
2010-05-10 06:13:47 51°23.034 2°48.38 344.4 12.6 335 20.4
2010-05-10 06:13:52 51°23.049 2°48.369 344.1 12.5 337 19.4
2010-05-10 06:13:57 51°23.065 2°48.357 344.4 12.5 335 19.2
2010-05-10 06:14:02 51°23.081 2°48.347 344.1 12.5 336 20.6
2010-05-10 06:14:07 51°23.097 2°48.335 344.1 12.6 336 20.9
2010-05-10 06:14:12 51°23.113 2°48.324 344.2 12.7 336 21.1
2010-05-10 06:14:17 51°23.129 2°48.312 344.5 12.6 336 21.4
2010-05-10 06:14:22 51°23.145 2°48.301 344.5 12.7 337 20
2010-05-10 06:14:27 51°23.161 2°48.289 344.7 12.7 334 19.7
2010-05-10 06:14:47 51°23.224 2°48.24 343.9 12.7 335 21.4
2010-05-10 06:14:53 51°23.243 2°48.226 343.9 12.8 336 21.2
2010-05-10 06:14:53 51°23.243 2°48.226 343.7 12.8 336 21.2
2010-05-10 06:15:03 51°23.275 2°48.202 344.1 12.7 335 21.2
2010-05-10 06:15:28 51°23.356 2°48.143 344.7 12.8 335 20.9
2010-05-10 06:15:28 51°23.356 2°48.143 344.7 12.8 335 20.9
2010-05-10 06:15:42 51°23.4 2°48.109 344.2 12.7 335 20.6
2010-05-10 06:15:42 51°23.4 2°48.109 344.2 12.7 335 20.6
2010-05-10 06:15:54 51°23.438 2°48.079 344.1 12.7 334 20.8
2010-05-10 06:15:59 51°23.454 2°48.067 343.9 12.7 335 20.6
2010-05-10 06:16:04 51°23.47 2°48.055 344.2 12.8 335 20.7
2010-05-10 06:16:09 51°23.486 2°48.042 344.3 12.7 333 21
2010-05-10 06:16:14 51°23.502 2°48.031 344.2 12.8 335 21.4
2010-05-10 06:16:44 51°23.598 2°47.959 344.5 12.6 335 19.8
2010-05-10 06:16:49 51°23.613 2°47.947 344.8 12.7 335 19.4
2010-05-10 06:16:54 51°23.629 2°47.935 344.7 12.5 336 19.8
2010-05-10 06:16:59 51°23.645 2°47.924 345.3 12.6 335 20.5
2010-05-10 06:17:04 51°23.661 2°47.912 344.5 12.8 336 20.9
2010-05-10 06:17:09 51°23.677 2°47.901 345 12.7 336 20.6
2010-05-10 06:17:14 51°23.693 2°47.889 344.6 12.7 335 20.5
2010-05-10 06:17:19 51°23.709 2°47.877 344.8 12.7 335 19.4
2010-05-10 06:17:24 51°23.725 2°47.865 344.7 12.7 335 18.1
2010-05-10 06:17:29 51°23.742 2°47.854 344.6 12.7 336 18.1
2010-05-10 06:17:34 51°23.757 2°47.842 344.4 12.7 334 19.7
2010-05-10 06:17:39 51°23.773 2°47.83 344.2 12.7 335 21.1
2010-05-10 06:17:44 51°23.789 2°47.818 344.2 12.7 336 21.5
2010-05-10 06:17:49 51°23.805 2°47.806 344.7 12.8 335 21.9
2010-05-10 06:17:53 51°23.818 2°47.797 344.5 12.6 337 22.1
2010-05-10 06:17:59 51°23.837 2°47.783 344.8 12.7 335 23.2
2010-05-10 06:18:04 51°23.853 2°47.772 344.5 12.6 337 23.7
2010-05-10 06:18:09 51°23.869 2°47.76 344.5 12.7 335 23.6
2010-05-10 06:18:14 51°23.885 2°47.75 344.8 12.6 337 23.7
2010-05-10 06:18:19 51°23.901 2°47.739 345.3 12.6 339 23.8
2010-05-10 06:18:24 51°23.918 2°47.729 346.7 12.7 339 24.1
2010-05-10 06:18:29 51°23.934 2°47.72 347.6 12.6 340 24.4
2010-05-10 06:18:34 51°23.951 2°47.71 348.2 12.6 340 23.9
2010-05-10 06:18:39 51°23.967 2°47.701 348.1 12.5 340 23
2010-05-10 06:18:44 51°23.984 2°47.692 349 12.4 341 23
2010-05-10 06:18:49 51°24 2°47.682 348.7 12.5 339 22.5
2010-05-10 06:18:54 51°24.016 2°47.673 349.2 12.5 342 23.2
2010-05-10 06:18:59 51°24.033 2°47.664 349.2 12.6 340 22.7
2010-05-10 06:19:04 51°24.049 2°47.655 349.4 12.6 341 22.7
2010-05-10 06:19:09 51°24.066 2°47.646 349.7 12.6 340 23
2010-05-10 06:19:14 51°24.083 2°47.637 349.5 12.7 341 23.1
2010-05-10 06:19:19 51°24.099 2°47.627 349.9 12.7 339 22.6
2010-05-10 06:19:24 51°24.116 2°47.618 349.7 12.6 342 21.9
2010-05-10 06:19:29 51°24.132 2°47.609 349.9 12.6 340 23.4
2010-05-10 06:19:34 51°24.149 2°47.6 350 12.6 341 24.7
2010-05-10 06:19:39 51°24.165 2°47.59 349.9 12.6 341 25.5
2010-05-10 06:19:44 51°24.182 2°47.582 349.9 12.7 341 25.6
2010-05-10 06:19:49 51°24.199 2°47.573 350.1 12.6 342 26.1
2010-05-10 06:19:54 51°24.215 2°47.565 351.5 12.6 344 26.2
2010-05-10 06:19:59 51°24.232 2°47.557 352.2 12.5 344 26
2010-05-10 06:20:04 51°24.249 2°47.55 353.4 12.5 344 26.5
2010-05-10 06:20:09 51°24.266 2°47.542 353.1 12.6 343 26.5
2010-05-10 06:20:14 51°24.282 2°47.535 353.4 12.6 346 25.7
2010-05-10 06:20:19 51°24.299 2°47.528 354.2 12.6 345 24.5
2010-05-10 06:20:24 51°24.316 2°47.521 354.8 12.6 346 24.5
2010-05-10 06:20:29 51°24.333 2°47.514 354.9 12.6 345 24.5
2010-05-10 06:20:34 51°24.35 2°47.508 354.4 12.6 346 24.7
2010-05-10 06:20:39 51°24.366 2°47.501 355 12.4 345 25.6
2010-05-10 06:20:44 51°24.383 2°47.494 355 12.4 347 26.1
2010-05-10 06:20:49 51°24.4 2°47.487 355 12.5 346 26.8
2010-05-10 06:20:54 51°24.417 2°47.481 355.2 12.5 347 27.6
2010-05-10 06:20:59 51°24.434 2°47.475 355.5 12.6 347 27.6
2010-05-10 06:21:04 51°24.451 2°47.469 355.6 12.5 347 27.8
2010-05-10 06:21:09 51°24.468 2°47.462 355.5 12.5 346 28
2010-05-10 06:21:14 51°24.485 2°47.456 355.1 12.5 347 28.8
2010-05-10 06:21:19 51°24.502 2°47.449 355.1 12.4 346 28.7
2010-05-10 06:21:24 51°24.518 2°47.443 355.1 12.5 346 29.8
2010-05-10 06:21:29 51°24.535 2°47.436 354.8 12.5 346 29.7
2010-05-10 06:21:34 51°24.552 2°47.43 354.9 12.5 346 30.2
2010-05-10 06:21:39 51°24.569 2°47.423 354.7 12.6 346 31
2010-05-10 06:21:44 51°24.586 2°47.416 354.5 12.5 346 31.1
2010-05-10 06:21:49 51°24.603 2°47.41 354.9 12.6 347 30.9
2010-05-10 06:21:54 51°24.62 2°47.404 354.8 12.5 346 30.3
2010-05-10 06:21:59 51°24.636 2°47.397 354.6 12.4 346 30.8
2010-05-10 06:22:04 51°24.653 2°47.391 354.4 12.5 347 31.3
2010-05-10 06:22:09 51°24.67 2°47.385 354.4 12.5 347 30.9
2010-05-10 06:22:14 51°24.687 2°47.378 355 12.4 347 30.7
2010-05-10 06:22:19 51°24.704 2°47.372 354.8 12.5 346 31
2010-05-10 06:22:24 51°24.721 2°47.366 354.6 12.4 348 31.1
2010-05-10 06:22:29 51°24.737 2°47.36 355 12.5 347 31.2
2010-05-10 06:22:34 51°24.754 2°47.354 354.5 12.4 348 31.5
2010-05-10 06:22:39 51°24.771 2°47.348 355.1 12.4 347 31.2
2010-05-10 06:22:44 51°24.788 2°47.342 355 12.5 347 30.6
2010-05-10 06:22:49 51°24.805 2°47.335 354.6 12.5 346 30.9
2010-05-10 06:22:53 51°24.818 2°47.33 354.7 12.4 348 30.9
2010-05-10 06:22:59 51°24.838 2°47.323 354.5 12.3 346 30.7
2010-05-10 06:23:04 51°24.855 2°47.316 354.3 12.4 347 29.4
2010-05-10 06:23:09 51°24.871 2°47.31 354.1 12.3 346 30.7
2010-05-10 06:23:14 51°24.888 2°47.304 354 12.4 346 31.3
2010-05-10 06:23:19 51°24.905 2°47.298 354.2 12.4 347 31
2010-05-10 06:23:24 51°24.922 2°47.292 354.7 12.3 348 30.3
2010-05-10 06:23:29 51°24.938 2°47.285 354.4 12.3 346 29.6
2010-05-10 06:23:34 51°24.955 2°47.279 354.4 12.4 347 29.3
2010-05-10 06:23:39 51°24.972 2°47.273 354.5 12.4 348 28.8
2010-05-10 06:23:44 51°24.989 2°47.268 354.7 12.4 348 28.4
2010-05-10 06:23:49 51°25.005 2°47.262 354.8 12.4 348 28.5
2010-05-10 06:23:54 51°25.022 2°47.256 354.8 12.4 348 27.9
2010-05-10 06:23:59 51°25.039 2°47.249 354.9 12.5 347 26.8
2010-05-10 06:24:04 51°25.056 2°47.243 354.5 12.4 347 25.8
2010-05-10 06:24:09 51°25.073 2°47.237 354.3 12.4 346 25.8
2010-05-10 06:24:13 51°25.086 2°47.232 354.3 12.4 347 25.2
2010-05-10 06:24:19 51°25.106 2°47.225 354.3 12.3 347 25
2010-05-10 06:24:24 51°25.123 2°47.219 354.7 12.3 348 25
2010-05-10 06:24:29 51°25.14 2°47.213 354.8 12.4 347 25.4
2010-05-10 06:24:34 51°25.157 2°47.207 354.2 12.4 346 25.1
2010-05-10 06:24:39 51°25.173 2°47.2 354 12.3 346 24.7
2010-05-10 06:24:44 51°25.19 2°47.193 354.1 12.5 346 24.8
2010-05-10 06:24:49 51°25.207 2°47.187 353.6 12.3 347 25.6
2010-05-10 06:24:54 51°25.223 2°47.181 354.1 12.2 347 24.9
2010-05-10 06:24:59 51°25.24 2°47.175 354.4 12.3 348 25
2010-05-10 06:25:04 51°25.257 2°47.17 354.6 12.3 348 25
2010-05-10 06:25:09 51°25.273 2°47.165 354.8 12.2 348 24.8
2010-05-10 06:25:14 51°25.29 2°47.158 354.5 12.3 346 24.9
2010-05-10 06:25:19 51°25.307 2°47.153 354.2 12.3 348 24.7
2010-05-10 06:25:24 51°25.324 2°47.147 354.6 12.4 347 25.4
2010-05-10 06:25:29 51°25.34 2°47.141 354.4 12.3 347 24.7
2010-05-10 06:25:34 51°25.357 2°47.134 354.1 12.4 346 25.2
2010-05-10 06:25:39 51°25.374 2°47.128 354.2 12.4 348 25.1
2010-05-10 06:25:44 51°25.391 2°47.122 354.2 12.5 346 25.7
2010-05-10 06:25:49 51°25.408 2°47.115 354.2 12.5 346 25.6
2010-05-10 06:25:54 51°25.425 2°47.109 354.2 12.6 347 26
2010-05-10 06:25:59 51°25.442 2°47.102 354.4 12.5 346 25
2010-05-10 06:26:04 51°25.459 2°47.096 354.5 12.6 348 25.6
2010-05-10 06:26:09 51°25.476 2°47.09 354.5 12.6 347 25.7
2010-05-10 06:26:14 51°25.493 2°47.084 354.4 12.6 347 25.3
2010-05-10 06:26:19 51°25.51 2°47.078 354.6 12.5 346 25.3
2010-05-10 06:26:24 51°25.527 2°47.071 354.6 12.6 347 24.1
2010-05-10 06:26:29 51°25.543 2°47.065 354.7 12.3 346 25.5
2010-05-10 06:26:34 51°25.56 2°47.058 354.1 12.4 346 26
2010-05-10 06:26:39 51°25.577 2°47.053 354.5 12.3 347 25
2010-05-10 06:26:44 51°25.593 2°47.046 354.5 12.3 347 22.7
2010-05-10 06:26:49 51°25.61 2°47.04 354.8 12.3 347 24.1
2010-05-10 06:26:54 51°25.627 2°47.034 354.8 12.4 347 25.6
2010-05-10 06:26:59 51°25.644 2°47.028 354.7 12.4 347 24.9
2010-05-10 06:27:04 51°25.66 2°47.022 354.8 12.3 347 24.9
2010-05-10 06:27:09 51°25.677 2°47.016 354.8 12.3 347 25.3
2010-05-10 06:27:14 51°25.693 2°47.01 354.3 12.3 348 23.9
2010-05-10 06:27:19 51°25.71 2°47.004 354.6 12.3 346 21.2
2010-05-10 06:27:24 51°25.727 2°46.997 354.2 12.4 347 22.8
2010-05-10 06:27:29 51°25.744 2°46.99 354.2 12.4 347 23.7
2010-05-10 06:27:33 51°25.757 2°46.985 354.2 12.4 346 23.2
2010-05-10 06:27:39 51°25.777 2°46.977 353.8 12.3 347 23.4
2010-05-10 06:27:44 51°25.793 2°46.971 354 12.4 347 23.6
2010-05-10 06:27:49 51°25.81 2°46.965 354.2 12.4 347 23.5
2010-05-10 06:27:54 51°25.827 2°46.958 354.2 12.4 346 22.8
2010-05-10 06:28:00 51°25.847 2°46.951 354.2 12.3 347 20.8
2010-05-10 06:28:04 51°25.86 2°46.946 354.3 12.3 346 21.7
2010-05-10 06:28:09 51°25.877 2°46.939 354.1 12.3 346 22.3
2010-05-10 06:28:14 51°25.893 2°46.933 354.2 12.3 347 22.3
2010-05-10 06:28:19 51°25.91 2°46.926 354.2 12.5 347 21.9
2010-05-10 06:28:24 51°25.927 2°46.92 354.7 12.4 347 22
2010-05-10 06:28:29 51°25.944 2°46.914 354.4 12.4 346 22.6
2010-05-10 06:28:34 51°25.96 2°46.908 354.5 12.4 347 23.3
2010-05-10 06:28:39 51°25.977 2°46.901 354.3 12.4 347 24.1
2010-05-10 06:28:44 51°25.994 2°46.895 354.3 12.3 347 24
2010-05-10 06:28:49 51°26.01 2°46.889 354.8 12.3 347 24.7
2010-05-10 06:28:54 51°26.027 2°46.883 354.7 12.4 347 24.5
2010-05-10 06:28:59 51°26.044 2°46.877 354.6 12.4 346 24.7
2010-05-10 06:29:04 51°26.061 2°46.87 354 12.4 346 25
2010-05-10 06:29:09 51°26.077 2°46.864 354.2 12.4 346 24.3
2010-05-10 06:29:13 51°26.091 2°46.858 353.8 12.5 347 24.7
2010-05-10 06:29:19 51°26.111 2°46.85 353.8 12.5 345 24.3
2010-05-10 06:29:24 51°26.128 2°46.844 353.6 12.4 346 24.4
2010-05-10 06:29:29 51°26.145 2°46.837 353.7 12.5 346 23.3
2010-05-10 06:29:34 51°26.161 2°46.83 353.7 12.3 346 22.8
2010-05-10 06:29:39 51°26.178 2°46.823 353.9 12.3 345 22
2010-05-10 06:29:44 51°26.194 2°46.816 353.6 12.4 346 23.7
2010-05-10 06:29:49 51°26.211 2°46.81 353.7 12.3 346 23.5
2010-05-10 06:29:54 51°26.228 2°46.803 354.1 12.3 346 23
2010-05-10 06:29:59 51°26.244 2°46.797 354.5 12.3 346 24
2010-05-10 06:30:04 51°26.261 2°46.79 354.4 12.4 346 25.1
2010-05-10 06:30:09 51°26.277 2°46.784 354.3 12.3 345 25.2
2010-05-10 06:30:14 51°26.293 2°46.777 354.2 12.2 346 25.6
2010-05-10 06:30:19 51°26.31 2°46.77 353.9 12.3 346 26.2
2010-05-10 06:30:24 51°26.327 2°46.764 354.3 12.3 346 26.2
2010-05-10 06:30:29 51°26.343 2°46.756 354 12.4 345 26.6
2010-05-10 06:30:34 51°26.359 2°46.75 354.3 12.2 347 24.7
2010-05-10 06:30:39 51°26.376 2°46.743 354.4 12.3 345 25.9
2010-05-10 06:30:44 51°26.393 2°46.737 353.9 12.3 346 26.4
2010-05-10 06:30:49 51°26.409 2°46.73 354.2 12.4 345 26.3
2010-05-10 06:30:54 51°26.426 2°46.723 354.1 12.4 345 26.3
2010-05-10 06:30:59 51°26.442 2°46.716 354 12.2 346 25.9
2010-05-10 06:31:04 51°26.459 2°46.71 354.3 12.3 346 26.1
2010-05-10 06:31:09 51°26.475 2°46.703 354.1 12.3 345 25.9
2010-05-10 06:31:14 51°26.492 2°46.696 354 12.3 346 25
2010-05-10 06:31:19 51°26.509 2°46.69 354.8 12.3 347 26.2
2010-05-10 06:31:24 51°26.525 2°46.683 354.6 12.3 347 27.1
2010-05-10 06:31:29 51°26.542 2°46.677 354.7 12.3 347 27.8
2010-05-10 06:31:34 51°26.559 2°46.67 354.5 12.5 346 27.5
2010-05-10 06:31:39 51°26.576 2°46.664 354.4 12.3 347 27.3
2010-05-10 06:31:44 51°26.592 2°46.657 354.5 12.4 346 28
2010-05-10 06:31:49 51°26.609 2°46.651 354.3 12.5 347 28.5
2010-05-10 06:31:53 51°26.623 2°46.645 354.3 12.4 346 28.3
2010-05-10 06:31:59 51°26.643 2°46.638 354.3 12.4 347 26.6
2010-05-10 06:32:04 51°26.66 2°46.632 354.7 12.4 347 26.9
2010-05-10 06:32:09 51°26.676 2°46.627 355.4 12.4 349 27.2
2010-05-10 06:32:14 51°26.693 2°46.62 355.8 12.4 347 27.9
2010-05-10 06:32:19 51°26.71 2°46.616 356.4 12.3 350 28
2010-05-10 06:32:24 51°26.727 2°46.61 356.7 12.4 348 28.9
2010-05-10 06:32:29 51°26.744 2°46.606 357.1 12.3 350 28.8
2010-05-10 06:32:34 51°26.76 2°46.6 357.5 12.3 349 29.2
2010-05-10 06:32:39 51°26.777 2°46.596 357.2 12.4 350 29.9
2010-05-10 06:32:44 51°26.794 2°46.591 357.4 12.5 349 29
2010-05-10 06:32:49 51°26.811 2°46.586 357.5 12.4 350 27.6
2010-05-10 06:32:54 51°26.828 2°46.581 358 12.2 350 28.4
2010-05-10 06:32:59 51°26.844 2°46.577 358 12.4 351 29.3
2010-05-10 06:33:04 51°26.862 2°46.572 358.3 12.4 351 30.2
2010-05-10 06:33:09 51°26.878 2°46.567 358.4 12.2 350 29.5
2010-05-10 06:33:14 51°26.895 2°46.563 358.1 12 350 30.1
2010-05-10 06:33:19 51°26.911 2°46.557 357.8 12.2 349 30.4
2010-05-10 06:33:24 51°26.928 2°46.552 357.7 12.2 349 30.1
2010-05-10 06:33:29 51°26.944 2°46.548 357.6 12.2 350 30.2
2010-05-10 06:33:34 51°26.961 2°46.543 357.6 12.3 349 30.3
2010-05-10 06:33:39 51°26.978 2°46.538 357.9 12.4 350 29.8
2010-05-10 06:33:44 51°26.995 2°46.532 357.5 12.3 349 29.4
2010-05-10 06:33:49 51°27.012 2°46.528 357.7 12.2 350 30.1
2010-05-10 06:33:54 51°27.028 2°46.522 357.1 12.3 348 31
2010-05-10 06:33:59 51°27.045 2°46.517 357.2 12.3 350 31.1
2010-05-10 06:34:04 51°27.062 2°46.512 357.2 12.5 348 31.5
2010-05-10 06:34:09 51°27.079 2°46.507 357 12.5 350 31.6
2010-05-10 06:34:14 51°27.096 2°46.502 357.9 12.4 350 31.4
2010-05-10 06:34:19 51°27.113 2°46.497 357.4 12.4 349 32
2010-05-10 06:34:24 51°27.129 2°46.492 357.5 12.4 350 32.2
2010-05-10 06:34:29 51°27.147 2°46.486 357.5 12.4 349 30.5
2010-05-10 06:34:34 51°27.163 2°46.481 357.5 12.3 349 29.8
2010-05-10 06:34:39 51°27.18 2°46.476 357.2 12.2 349 30.3
2010-05-10 06:34:45 51°27.2 2°46.47 357.4 12.4 349 30.7
2010-05-10 06:34:49 51°27.213 2°46.465 357.3 12.4 349 30.1
2010-05-10 06:34:53 51°27.227 2°46.461 357.3 12.3 349 29.9
2010-05-10 06:34:59 51°27.247 2°46.455 357.3 12.2 349 29.5
2010-05-10 06:35:04 51°27.264 2°46.449 357.3 12.3 349 30.1
2010-05-10 06:35:09 51°27.28 2°46.445 357.5 12.3 350 29.9
2010-05-10 06:35:14 51°27.297 2°46.44 357.4 12.4 349 30
2010-05-10 06:35:19 51°27.314 2°46.435 357.7 12.3 350 30.2
2010-05-10 06:35:24 51°27.331 2°46.43 357.5 12.5 349 30.6
2010-05-10 06:35:29 51°27.348 2°46.425 357.3 12.4 349 31.1
2010-05-10 06:35:33 51°27.361 2°46.42 357.3 12.3 349 31.6
2010-05-10 06:35:39 51°27.381 2°46.414 357.4 12.2 349 32.2
2010-05-10 06:35:44 51°27.398 2°46.409 357.6 12.4 349 32.6
2010-05-10 06:35:49 51°27.415 2°46.404 357.2 12.3 349 32.3
2010-05-10 06:35:54 51°27.432 2°46.399 357.6 12.2 350 32.6
2010-05-10 06:35:59 51°27.449 2°46.394 357.8 12.5 349 32.2
2010-05-10 06:36:04 51°27.466 2°46.389 357.3 12.5 349 31.2
2010-05-10 06:36:09 51°27.483 2°46.383 357.2 12.4 349 30.5
2010-05-10 06:36:14 51°27.499 2°46.378 357.4 12.4 349 29.9
2010-05-10 06:36:19 51°27.516 2°46.373 357.2 12.3 349 29.8
2010-05-10 06:36:24 51°27.533 2°46.368 357.2 12.3 349 29.7
2010-05-10 06:36:29 51°27.55 2°46.363 357.2 12.3 350 29.3
2010-05-10 06:36:34 51°27.566 2°46.358 357 12.3 349 29.7
2010-05-10 06:36:39 51°27.583 2°46.353 357.1 12.2 350 29.3
2010-05-10 06:36:44 51°27.6 2°46.348 357.4 12.2 350 29.2
2010-05-10 06:36:49 51°27.617 2°46.343 357.6 12.3 349 29.4
2010-05-10 06:36:54 51°27.634 2°46.339 357.4 12.3 350 29.4
2010-05-10 06:36:59 51°27.651 2°46.334 357.4 12.3 349 28.9
2010-05-10 06:37:04 51°27.667 2°46.329 357.6 12.3 350 29.4
2010-05-10 06:37:09 51°27.684 2°46.324 357.6 12.4 349 29.2
2010-05-10 06:37:13 51°27.698 2°46.32 357.6 12.3 350 29.1
2010-05-10 06:37:19 51°27.718 2°46.314 357.2 12.3 350 29.1
2010-05-10 06:37:24 51°27.735 2°46.31 357.6 12.3 350 28.4
2010-05-10 06:37:29 51°27.752 2°46.305 357.6 12.4 350 29
2010-05-10 06:37:34 51°27.769 2°46.301 357.7 12.4 350 28.9
2010-05-10 06:37:39 51°27.785 2°46.297 357.9 12.3 351 28.9
2010-05-10 06:37:44 51°27.802 2°46.291 357.8 12.3 349 28.6
2010-05-10 06:37:49 51°27.819 2°46.287 357.3 12.3 350 28.9
2010-05-10 06:37:54 51°27.836 2°46.282 357.2 12.3 349 29
2010-05-10 06:37:59 51°27.853 2°46.277 357 12.4 350 29.1
2010-05-10 06:38:04 51°27.87 2°46.272 357.2 12.5 350 29.1
2010-05-10 06:38:09 51°27.887 2°46.267 357.2 12.4 350 28.7
2010-05-10 06:38:14 51°27.903 2°46.262 357.2 12.3 349 28.4
2010-05-10 06:38:19 51°27.92 2°46.257 356.8 12.4 349 28.8
2010-05-10 06:38:24 51°27.937 2°46.252 357.2 12.4 349 28.7
2010-05-10 06:38:29 51°27.954 2°46.247 357 12.3 350 28.9
2010-05-10 06:38:34 51°27.971 2°46.243 357.6 12.3 351 28.4
2010-05-10 06:38:39 51°27.988 2°46.238 357.7 12.4 351 28
2010-05-10 06:38:44 51°28.005 2°46.234 357.7 12.4 351 28
2010-05-10 06:38:49 51°28.022 2°46.229 357.6 12.4 350 27.7
2010-05-10 06:38:54 51°28.039 2°46.225 357.3 12.3 351 27.5
2010-05-10 06:38:59 51°28.056 2°46.22 357.4 12.4 351 27.6
2010-05-10 06:39:04 51°28.073 2°46.216 357.6 12.5 352 27.3
2010-05-10 06:39:09 51°28.09 2°46.212 357.6 12.4 350 27.1
2010-05-10 06:39:14 51°28.107 2°46.208 357.6 12.2 351 27.7
2010-05-10 06:39:19 51°28.124 2°46.203 357.5 12.4 351 28.5
2010-05-10 06:39:24 51°28.141 2°46.199 357.6 12.4 350 28.2
2010-05-10 06:39:29 51°28.158 2°46.195 357 12.5 351 27.9
2010-05-10 06:39:33 51°28.172 2°46.191 357.3 12.3 350 27.5
2010-05-10 06:39:39 51°28.192 2°46.186 356.8 12.4 352 27.7
2010-05-10 06:39:44 51°28.209 2°46.182 357.2 12.4 352 27.6
2010-05-10 06:39:49 51°28.226 2°46.178 357.3 12.5 350 27.9
2010-05-10 06:39:54 51°28.243 2°46.174 357.2 12.5 352 28
2010-05-10 06:39:59 51°28.26 2°46.169 357.1 12.4 351 27.4
2010-05-10 06:40:04 51°28.277 2°46.165 357.1 12.5 351 27.2
2010-05-10 06:40:09 51°28.294 2°46.161 356.9 12.5 352 27.5
2010-05-10 06:40:14 51°28.312 2°46.157 357.5 12.6 351 27.7
2010-05-10 06:40:19 51°28.329 2°46.152 357.1 12.4 351 27.2
2010-05-10 06:40:24 51°28.346 2°46.149 357.2 12.4 352 27.9
2010-05-10 06:40:29 51°28.363 2°46.145 357.4 12.4 352 28.1
2010-05-10 06:40:34 51°28.38 2°46.141 357.6 12.4 352 27.9
2010-05-10 06:40:39 51°28.397 2°46.137 357.3 12.5 351 27.8
2010-05-10 06:40:44 51°28.414 2°46.132 357.1 12.6 351 27.7
2010-05-10 06:40:49 51°28.432 2°46.128 357.1 12.6 351 27.5
2010-05-10 06:40:53 51°28.445 2°46.125 357.1 12.4 352 27.3
2010-05-10 06:40:59 51°28.466 2°46.119 357.1 12.5 350 27.4
2010-05-10 06:41:04 51°28.483 2°46.115 356.6 12.6 352 27.7
2010-05-10 06:41:09 51°28.501 2°46.111 357.3 12.7 351 27.9
2010-05-10 06:41:14 51°28.518 2°46.107 357.2 12.7 351 27.6
2010-05-10 06:41:19 51°28.535 2°46.103 357.2 12.6 352 27.2
2010-05-10 06:41:24 51°28.552 2°46.099 357.9 12.5 352 26.8
2010-05-10 06:41:29 51°28.57 2°46.095 357.5 12.6 351 26.5
2010-05-10 06:41:34 51°28.587 2°46.091 357.2 12.6 352 25.9
2010-05-10 06:41:39 51°28.604 2°46.087 357.2 12.4 352 24.9
2010-05-10 06:41:44 51°28.621 2°46.083 357.2 12.5 352 27.6
2010-05-10 06:41:49 51°28.638 2°46.078 357.2 12.5 351 27.8
2010-05-10 06:41:54 51°28.656 2°46.075 357.2 12.6 352 27.3
2010-05-10 06:41:59 51°28.673 2°46.071 357.3 12.6 351 27.2
2010-05-10 06:42:04 51°28.69 2°46.066 357.2 12.6 352 26.5
2010-05-10 06:42:09 51°28.708 2°46.062 357.2 12.6 351 26.6
2010-05-10 06:42:13 51°28.721 2°46.058 356.8 12.6 350 26.9
2010-05-10 06:42:19 51°28.742 2°46.053 356.9 12.5 351 26.6
2010-05-10 06:42:24 51°28.759 2°46.048 357.2 12.6 350 26.1
2010-05-10 06:42:29 51°28.776 2°46.043 356.7 12.5 350 26.7
2010-05-10 06:42:34 51°28.793 2°46.039 357.2 12.5 351 26.2
2010-05-10 06:42:39 51°28.81 2°46.034 356.9 12.5 350 25.9
2010-05-10 06:42:44 51°28.827 2°46.03 356.9 12.4 353 26
2010-05-10 06:42:49 51°28.844 2°46.024 357.3 12.5 349 25.5